Time;durP1;ratioP1;P1;durP2;ratioP2;P2;SDS_P1;SDS_P2;PMS_P1;PMS_P2;Temp;Humidity;BMP_temperature;BMP_pressure;BME280_temperature;BME280_humidity;BME280_pressure;Samples;Min_cycle;Max_cycle;Signal;HPM_P1;HPM_P2
2022/11/10 00:00:22;;;;;;;5.03;0.35;;;;;;;6.96;58.07;101304.69;5024841;28;20088;-69
2022/11/10 00:03:10;;;;;;;12.10;0.98;;;;;;;7.17;58.21;101319.88;5026319;28;20149;-68
2022/11/10 00:05:55;;;;;;;4.05;0.50;;;;;;;7.06;58.80;101319.22;5016509;28;20071;-67
2022/11/10 00:08:39;;;;;;;0.85;0.35;;;;;;;6.93;59.67;101321.16;5024787;28;20479;-67
2022/11/10 00:11:22;;;;;;;1.13;0.40;;;;;;;6.35;62.16;101323.00;5027731;28;20624;-68
2022/11/10 00:17:11;;;;;;;1.85;0.30;;;;;;;7.15;59.49;101333.78;5025911;28;20584;-68
2022/11/10 00:19:55;;;;;;;7.35;0.47;;;;;;;7.08;59.26;101338.25;5013062;28;20080;-68
2022/11/10 00:22:39;;;;;;;5.47;0.35;;;;;;;7.31;58.61;101337.81;5012055;28;20126;-69
2022/11/10 00:25:25;;;;;;;5.18;1.20;;;;;;;6.70;60.59;101347.53;5026464;28;20351;-69
2022/11/10 00:28:09;;;;;;;2.55;0.20;;;;;;;6.59;60.63;101345.13;5026273;28;20051;-70
2022/11/10 00:30:53;;;;;;;7.95;0.90;;;;;;;6.82;60.06;101342.16;5009685;28;20217;-70
2022/11/10 00:33:39;;;;;;;3.40;0.47;;;;;;;6.65;60.61;101349.38;5006231;28;20099;-70
2022/11/10 00:36:23;;;;;;;5.05;0.57;;;;;;;7.17;59.11;101342.41;5006596;28;20072;-72
2022/11/10 00:39:07;;;;;;;7.60;1.40;;;;;;;6.90;59.77;101340.28;5003528;28;20052;-70
2022/11/10 00:41:51;;;;;;;6.38;1.40;;;;;;;6.30;61.69;101350.75;5006789;28;20253;-70
2022/11/10 00:44:35;;;;;;;8.75;0.93;;;;;;;6.79;59.94;101351.75;5005595;28;20057;-71
2022/11/10 00:47:19;;;;;;;3.92;0.90;;;;;;;6.13;62.30;101360.47;5006977;28;20080;-71
2022/11/10 00:50:04;;;;;;;6.45;0.88;;;;;;;6.57;61.08;101377.19;5008337;28;20056;-70
2022/11/10 00:52:48;;;;;;;8.55;0.98;;;;;;;5.94;62.96;101381.47;5007710;28;20084;-73
2022/11/10 00:55:32;;;;;;;2.88;0.77;;;;;;;6.61;60.38;101387.50;5009723;28;20068;-71
2022/11/10 00:58:16;;;;;;;3.63;1.00;;;;;;;6.73;60.07;101404.66;5010252;28;20061;-71
2022/11/10 01:01:04;;;;;;;4.43;0.65;;;;;;;7.19;58.62;101406.50;5007911;28;20080;-72
2022/11/10 01:03:48;;;;;;;3.78;0.45;;;;;;;6.99;59.34;101416.38;5022298;28;20541;-73
2022/11/10 01:06:32;;;;;;;4.55;0.68;;;;;;;6.97;59.41;101413.78;5008673;28;20126;-73
2022/11/10 01:09:16;;;;;;;6.85;0.30;;;;;;;7.47;58.22;101403.41;5021177;28;20871;-72
2022/11/10 01:12:00;;;;;;;7.75;0.40;;;;;;;7.16;58.98;101408.31;5009689;28;20747;-71
2022/11/10 01:14:46;;;;;;;4.70;0.47;;;;;;;7.17;58.82;101429.06;5008988;28;20072;-71
2022/11/10 01:17:31;;;;;;;4.28;0.80;;;;;;;7.24;58.82;101435.00;5009486;28;20172;-70
2022/11/10 01:20:15;;;;;;;5.10;0.70;;;;;;;7.38;58.54;101429.56;5008810;28;20096;-72
2022/11/10 01:23:00;;;;;;;4.78;0.40;;;;;;;7.14;58.54;101431.72;5009520;28;20748;-70
2022/11/10 01:25:46;;;;;;;7.28;0.35;;;;;;;7.03;59.53;101433.66;5005925;28;20549;-71
2022/11/10 01:28:31;;;;;;;2.63;0.30;;;;;;;7.00;59.38;101429.34;5015657;28;20054;-70
2022/11/10 01:31:18;;;;;;;6.28;0.98;;;;;;;7.19;58.58;101432.50;5009033;28;20052;-69
2022/11/10 01:34:02;;;;;;;4.13;0.88;;;;;;;7.16;58.41;101431.72;5009086;28;20414;-68
2022/11/10 01:36:46;;;;;;;2.67;0.30;;;;;;;7.02;59.46;101431.91;5011079;28;20052;-69
2022/11/10 01:39:30;;;;;;;2.83;0.55;;;;;;;7.01;59.71;101443.19;5008166;28;20115;-67
2022/11/10 01:42:14;;;;;;;2.25;0.52;;;;;;;7.10;59.75;101445.66;5028029;28;20057;-71
2022/11/10 01:45:23;;;;;;;4.20;0.47;;;;;;;7.06;59.71;101454.38;5014789;28;20048;-74
2022/11/10 01:48:09;;;;;;;1.83;0.63;;;;;;;7.42;58.76;101434.72;5009556;28;20052;-75
2022/11/10 01:50:56;;;;;;;5.88;1.00;;;;;;;7.22;59.73;101445.47;5029483;28;20071;-74
2022/11/10 01:53:45;;;;;;;7.47;1.27;;;;;;;6.84;61.40;101454.72;5028637;28;20052;-75
2022/11/10 01:56:33;;;;;;;2.70;0.60;;;;;;;7.46;59.38;101438.09;5028602;28;20075;-75
2022/11/10 01:59:24;;;;;;;2.28;1.05;;;;;;;7.25;59.96;101455.81;5028412;28;20568;-75
2022/11/10 02:02:18;;;;;;;6.03;0.98;;;;;;;7.47;59.41;101435.47;5030471;28;20475;-69
2022/11/10 02:05:03;;;;;;;6.38;1.85;;;;;;;7.17;60.38;101446.41;5024922;28;20087;-68
2022/11/10 02:07:50;;;;;;;6.97;1.88;;;;;;;7.15;60.54;101442.97;5027911;28;20181;-72
2022/11/10 02:10:36;;;;;;;7.80;2.28;;;;;;;7.05;60.44;101439.69;5026602;28;21971;-70
2022/11/10 02:13:20;;;;;;;6.35;2.40;;;;;;;7.20;60.16;101435.94;5025503;28;20150;-72
2022/11/10 02:16:04;;;;;;;7.43;2.92;;;;;;;7.27;59.99;101441.03;5027827;28;20167;-74
2022/11/10 02:18:48;;;;;;;8.82;2.95;;;;;;;7.26;59.79;101444.50;5016000;28;20044;-70
2022/11/10 02:21:32;;;;;;;10.02;3.10;;;;;;;6.72;61.51;101454.91;5028798;28;20044;-67
2022/11/10 02:24:16;;;;;;;10.30;3.28;;;;;;;6.80;61.97;101447.00;5027280;28;20075;-71
2022/11/10 02:27:01;;;;;;;8.55;3.13;;;;;;;7.08;60.72;101450.00;5025506;28;20653;-71
2022/11/10 02:29:45;;;;;;;10.10;3.65;;;;;;;7.41;59.11;101451.19;5028144;28;20088;-70
2022/11/10 02:32:29;;;;;;;9.40;4.35;;;;;;;6.77;61.52;101466.06;5015871;28;20152;-71
2022/11/10 02:35:13;;;;;;;10.93;3.75;;;;;;;7.06;60.48;101470.81;5027559;28;20047;-71
2022/11/10 02:37:57;;;;;;;13.30;3.17;;;;;;;6.58;62.06;101477.63;5028048;28;20532;-70
2022/11/10 02:40:41;;;;;;;8.75;3.00;;;;;;;6.73;61.06;101487.81;5023362;28;20471;-71
2022/11/10 02:43:25;;;;;;;10.95;3.83;;;;;;;7.14;59.51;101481.13;5025447;28;20499;-69
2022/11/10 02:46:09;;;;;;;7.18;3.53;;;;;;;7.15;58.88;101468.97;5027230;28;20559;-70
2022/11/10 02:48:53;;;;;;;10.13;3.38;;;;;;;6.77;60.51;101478.22;5017961;28;20079;-70
2022/11/10 02:51:38;;;;;;;9.95;3.17;;;;;;;6.45;61.02;101477.78;5025575;28;20048;-71
2022/11/10 02:54:22;;;;;;;15.32;4.43;;;;;;;6.50;61.38;101480.31;5023976;28;20098;-70
2022/11/10 02:57:06;;;;;;;7.88;3.83;;;;;;;6.29;61.97;101495.28;5026690;28;20052;-70
2022/11/10 02:59:51;;;;;;;11.02;3.28;;;;;;;6.61;60.55;101493.16;5024081;28;20084;-69
2022/11/10 03:02:36;;;;;;;7.53;2.42;;;;;;;6.41;61.02;101504.66;5023627;28;20088;-69
2022/11/10 03:05:20;;;;;;;21.35;3.67;;;;;;;6.54;60.78;101509.72;5026128;28;20056;-67
2022/11/10 03:08:04;;;;;;;14.45;4.20;;;;;;;6.46;61.04;101508.06;5021032;28;20052;-70
2022/11/10 03:10:53;;;;;;;7.95;2.95;;;;;;;6.59;60.30;101502.69;5022515;28;20130;-69
2022/11/10 03:13:37;;;;;;;11.23;3.72;;;;;;;6.56;60.77;101515.75;5024142;28;20075;-70
2022/11/10 03:16:21;;;;;;;12.20;3.13;;;;;;;6.17;62.02;101515.28;5029275;28;20103;-70
2022/11/10 03:19:05;;;;;;;12.40;3.92;;;;;;;6.39;61.40;101521.13;5026679;28;20087;-71
2022/11/10 03:21:49;;;;;;;11.50;4.18;;;;;;;6.46;60.54;101518.47;5026001;28;20612;-69
2022/11/10 03:24:33;;;;;;;10.63;3.72;;;;;;;6.20;61.23;101521.31;5016583;28;20689;-70
2022/11/10 03:27:16;;;;;;;12.90;3.20;;;;;;;5.96;62.51;101524.19;5026259;28;20076;-68
2022/11/10 03:30:01;;;;;;;15.60;3.92;;;;;;;6.10;62.18;101524.88;5027715;28;20163;-69
2022/11/10 03:32:44;;;;;;;5.20;2.90;;;;;;;6.17;61.72;101533.47;5013784;28;20343;-69
2022/11/10 03:35:29;;;;;;;6.47;3.25;;;;;;;6.37;61.46;101536.72;5013465;28;20044;-69
2022/11/10 03:38:13;;;;;;;16.38;4.10;;;;;;;5.84;62.64;101535.56;5027850;28;20052;-70
2022/11/10 03:40:57;;;;;;;13.18;3.95;;;;;;;5.69;63.44;101540.88;5025941;28;20128;-69
2022/11/10 03:43:41;;;;;;;14.25;3.55;;;;;;;6.19;61.52;101548.16;5026247;28;20056;-70
2022/11/10 03:46:25;;;;;;;7.85;3.55;;;;;;;6.37;61.06;101548.84;5026799;28;20408;-72
2022/11/10 03:49:09;;;;;;;15.27;3.70;;;;;;;6.39;60.62;101550.56;5009654;28;20110;-71
2022/11/10 03:51:53;;;;;;;16.48;4.10;;;;;;;6.08;61.75;101556.06;5024314;28;20056;-70
2022/11/10 03:54:37;;;;;;;11.43;4.88;;;;;;;6.20;61.32;101562.84;5022102;28;20048;-71
2022/11/10 03:57:20;;;;;;;17.10;3.83;;;;;;;5.69;62.92;101564.22;5026057;28;20142;-69
2022/11/10 04:00:06;;;;;;;12.43;3.70;;;;;;;6.15;61.79;101562.06;5027018;28;20044;-71
2022/11/10 04:02:50;;;;;;;13.82;5.15;;;;;;;5.79;62.66;101574.50;5017820;28;20045;-69
2022/11/10 04:17:49;;;;;;;16.33;4.38;;;;;;;6.21;61.30;101594.84;5025195;28;20132;-71
2022/11/10 04:20:34;;;;;;;14.32;4.40;;;;;;;6.20;61.23;101594.00;5024860;28;20096;-70
2022/11/10 04:23:27;;;;;;;11.10;4.38;;;;;;;6.13;61.20;101604.44;5019452;28;20048;-70
2022/11/10 04:26:28;;;;;;;12.23;3.58;;;;;;;6.28;61.58;101609.53;5028931;28;20095;-69
2022/11/10 04:29:15;;;;;;;12.33;4.60;;;;;;;6.23;61.35;101609.53;5029198;28;20107;-71
2022/11/10 04:31:59;;;;;;;13.13;4.20;;;;;;;6.28;61.22;101612.13;5030300;28;20870;-69
2022/11/10 04:34:43;;;;;;;13.35;4.75;;;;;;;6.31;61.18;101614.72;5029180;28;20171;-69
2022/11/10 04:37:27;;;;;;;16.60;4.45;;;;;;;6.20;61.25;101616.50;5031707;28;20057;-70
2022/11/10 04:40:11;;;;;;;17.40;5.45;;;;;;;6.21;61.74;101623.41;5029956;28;20064;-68
2022/11/10 04:42:55;;;;;;;12.82;3.65;;;;;;;6.19;61.00;101627.75;5027634;28;20055;-69
2022/11/10 04:45:39;;;;;;;19.65;5.18;;;;;;;5.93;62.10;101623.69;5025236;28;20056;-67
2022/11/10 04:48:24;;;;;;;17.98;4.30;;;;;;;6.07;62.09;101611.44;5027448;28;20137;-67
2022/11/10 04:51:09;;;;;;;8.65;4.63;;;;;;;6.02;61.77;101623.59;5030089;28;20076;-69
2022/11/10 04:53:53;;;;;;;16.08;5.72;;;;;;;5.67;62.96;101627.31;5028307;28;20195;-68
2022/11/10 04:56:39;;;;;;;10.00;4.65;;;;;;;6.13;61.88;101633.00;5026801;28;20052;-68
2022/11/10 04:59:22;;;;;;;9.15;4.03;;;;;;;5.88;62.77;101633.22;5030220;28;20071;-69
2022/11/10 05:02:07;;;;;;;20.98;5.90;;;;;;;6.24;61.29;101632.03;5031863;28;20056;-70
2022/11/10 05:04:51;;;;;;;10.48;4.55;;;;;;;5.76;63.08;101626.41;5026159;28;20342;-70
2022/11/10 05:07:35;;;;;;;14.82;4.55;;;;;;;6.43;61.33;101624.94;5028159;28;20246;-71
2022/11/10 05:10:19;;;;;;;15.63;4.10;;;;;;;6.29;61.74;101627.69;5028932;28;20044;-68
2022/11/10 05:13:04;;;;;;;13.35;4.40;;;;;;;6.07;62.66;101624.41;5015485;28;20107;-69
2022/11/10 05:15:51;;;;;;;18.65;5.43;;;;;;;6.32;61.57;101634.59;5028437;28;20059;-72
2022/11/10 05:18:35;;;;;;;11.85;3.50;;;;;;;6.46;61.19;101617.13;5015982;28;20072;-72
2022/11/10 05:21:19;;;;;;;14.38;4.25;;;;;;;5.98;62.57;101615.84;5028105;28;20052;-72
2022/11/10 05:24:03;;;;;;;17.33;4.88;;;;;;;6.12;62.20;101620.91;5030085;28;20307;-71
2022/11/10 05:26:47;;;;;;;15.73;5.22;;;;;;;5.90;62.69;101623.69;5028594;28;20116;-73
2022/11/10 05:29:31;;;;;;;13.95;4.78;;;;;;;6.28;61.62;101636.38;5016400;28;20387;-74
2022/11/10 05:32:15;;;;;;;10.23;3.20;;;;;;;6.14;62.20;101645.13;5016491;28;20060;-74
2022/11/10 05:34:59;;;;;;;12.02;4.15;;;;;;;5.94;63.05;101645.28;5027889;28;20184;-71
2022/11/10 05:37:43;;;;;;;16.02;3.95;;;;;;;6.15;62.63;101646.81;5016556;28;20044;-74
2022/11/10 05:40:28;;;;;;;14.25;4.60;;;;;;;5.94;62.83;101664.31;5028346;28;20138;-71
2022/11/10 05:43:12;;;;;;;16.80;4.53;;;;;;;5.90;63.34;101665.19;5025911;28;20497;-69
2022/11/10 05:45:56;;;;;;;13.40;3.58;;;;;;;5.93;63.35;101660.00;5027103;28;20110;-73
2022/11/10 05:48:40;;;;;;;14.07;3.75;;;;;;;6.35;61.54;101667.44;5026883;28;20087;-70
2022/11/10 05:51:24;;;;;;;16.10;4.80;;;;;;;6.22;61.89;101666.69;5028304;28;20064;-72
2022/11/10 05:54:08;;;;;;;19.92;4.03;;;;;;;6.40;61.57;101671.72;5016127;28;20571;-69
2022/11/10 05:56:52;;;;;;;10.57;3.83;;;;;;;6.09;62.69;101686.69;5026988;28;20099;-70
2022/11/10 05:59:36;;;;;;;15.80;4.25;;;;;;;6.43;61.54;101683.81;5025595;28;20064;-70
2022/11/10 06:02:20;;;;;;;16.13;4.45;;;;;;;6.45;62.01;101695.06;5028412;28;20043;-72
2022/11/10 06:05:05;;;;;;;14.55;4.22;;;;;;;6.26;62.84;101694.31;5019750;28;20137;-71
2022/11/10 06:07:49;;;;;;;13.73;4.22;;;;;;;6.21;62.68;101706.47;5028599;28;20106;-70
2022/11/10 06:10:34;;;;;;;22.25;3.95;;;;;;;5.75;64.01;101712.00;5014001;28;20056;-69
2022/11/10 06:13:19;;;;;;;17.40;3.30;;;;;;;6.13;62.91;101713.47;5026807;28;20240;-70
2022/11/10 06:16:03;;;;;;;8.63;3.47;;;;;;;6.06;63.09;101712.66;5026848;28;20502;-69
2022/11/10 06:18:47;;;;;;;14.68;5.45;;;;;;;6.05;62.97;101723.91;5023995;28;20122;-70
2022/11/10 06:21:31;;;;;;;7.18;3.83;;;;;;;6.51;61.37;101715.78;5028271;28;20131;-68
2022/11/10 06:24:15;;;;;;;18.05;3.63;;;;;;;6.41;61.54;101727.97;5026410;28;20121;-73
2022/11/10 06:26:59;;;;;;;15.57;4.13;;;;;;;5.84;63.32;101728.38;5027299;28;20044;-73
2022/11/10 06:29:44;;;;;;;17.13;4.85;;;;;;;6.31;62.58;101721.16;5025054;28;20048;-70
2022/11/10 06:32:28;;;;;;;13.48;4.03;;;;;;;6.62;61.02;101720.84;5028777;28;20195;-69
2022/11/10 06:35:12;;;;;;;18.60;4.50;;;;;;;6.74;60.52;101718.13;5011758;28;20533;-69
2022/11/10 06:38:04;;;;;;;13.98;4.68;;;;;;;5.99;63.72;101731.75;5027164;28;20131;-69
2022/11/10 06:40:48;;;;;;;19.15;4.32;;;;;;;6.16;62.77;101742.88;5025935;28;20060;-68
2022/11/10 06:43:32;;;;;;;22.05;5.35;;;;;;;6.22;63.27;101747.16;5024801;28;20517;-72
2022/11/10 06:46:16;;;;;;;12.77;4.30;;;;;;;6.37;62.13;101747.03;5028260;28;20052;-72
2022/11/10 06:49:00;;;;;;;15.18;4.18;;;;;;;6.37;62.72;101757.44;5025040;28;20091;-72
2022/11/10 06:51:44;;;;;;;16.88;5.28;;;;;;;6.28;62.84;101754.91;5027245;28;20386;-71
2022/11/10 06:54:28;;;;;;;15.30;4.15;;;;;;;6.15;63.17;101758.44;5023636;28;20062;-71
2022/11/10 06:57:12;;;;;;;19.67;4.95;;;;;;;6.40;62.29;101774.75;5027847;28;20063;-74
2022/11/10 06:59:56;;;;;;;19.33;5.43;;;;;;;6.09;63.82;101774.94;5027698;28;20095;-72
2022/11/10 07:02:40;;;;;;;11.93;4.57;;;;;;;6.47;62.12;101785.06;5026856;28;20052;-72
2022/11/10 07:05:23;;;;;;;22.52;5.25;;;;;;;6.44;62.58;101781.63;5024766;28;20048;-70
2022/11/10 07:08:12;;;;;;;22.02;5.65;;;;;;;6.56;61.65;101796.25;5026935;28;20106;-70
2022/11/10 07:10:56;;;;;;;15.63;5.05;;;;;;;6.87;61.07;101800.28;5022665;28;20055;-69
2022/11/10 07:13:41;;;;;;;14.15;4.78;;;;;;;6.19;63.31;101809.47;5019139;28;20174;-69
2022/11/10 07:16:25;;;;;;;21.80;5.68;;;;;;;6.54;62.26;101831.75;5026869;28;20426;-70
2022/11/10 07:19:10;;;;;;;20.50;7.00;;;;;;;6.42;62.70;101835.31;5024010;28;20079;-70
2022/11/10 07:21:54;;;;;;;20.45;6.68;;;;;;;6.69;61.45;101834.25;5023983;28;20452;-68
2022/11/10 07:24:38;;;;;;;10.35;4.90;;;;;;;6.57;61.95;101834.34;5024247;28;20528;-71
2022/11/10 07:27:22;;;;;;;15.35;4.18;;;;;;;6.90;60.76;101834.03;5023009;28;20176;-68
2022/11/10 07:30:07;;;;;;;23.45;6.53;;;;;;;6.81;60.71;101817.69;5027267;28;20052;-69
2022/11/10 07:32:59;;;;;;;24.75;7.70;;;;;;;6.42;62.13;101811.97;5023803;28;20569;-72
2022/11/10 07:35:49;;;;;;;19.73;4.53;;;;;;;6.79;60.91;101820.28;5024530;28;20048;-74
2022/11/10 07:38:33;;;;;;;14.52;4.43;;;;;;;6.29;62.81;101817.22;5023896;28;20071;-70
2022/11/10 07:41:17;;;;;;;20.00;5.55;;;;;;;6.90;61.99;101813.25;5024914;28;20083;-72
2022/11/10 07:44:02;;;;;;;18.38;5.78;;;;;;;7.30;59.96;101809.38;5027886;28;20107;-71
2022/11/10 07:46:46;;;;;;;18.92;6.18;;;;;;;7.55;59.73;101822.97;5023454;28;20063;-72
2022/11/10 07:49:30;;;;;;;24.55;5.90;;;;;;;7.77;59.11;101827.94;5024181;28;20606;-71
2022/11/10 07:52:13;;;;;;;16.55;4.90;;;;;;;8.28;58.08;101844.56;5028705;28;20239;-73
2022/11/10 07:54:57;;;;;;;19.80;4.57;;;;;;;8.68;56.45;101830.91;5024375;28;20047;-74
2022/11/10 07:57:42;;;;;;;18.48;4.03;;;;;;;8.81;55.44;101842.03;5013402;28;20048;-73
2022/11/10 08:00:26;;;;;;;16.05;6.00;;;;;;;8.68;56.23;101841.31;5024825;28;20057;-70
2022/11/10 08:03:11;;;;;;;12.68;4.45;;;;;;;8.88;56.10;101851.44;5026779;28;20106;-71
2022/11/10 08:05:55;;;;;;;13.52;4.15;;;;;;;10.14;52.78;101846.34;5023824;28;20552;-69
2022/11/10 08:08:39;;;;;;;18.80;4.65;;;;;;;10.11;52.88;101846.44;5025620;28;20392;-71
2022/11/10 08:11:23;;;;;;;17.48;4.22;;;;;;;9.43;53.49;101840.88;5023220;28;20056;-72
2022/11/10 08:14:07;;;;;;;15.55;4.03;;;;;;;10.13;52.23;101849.00;5022361;28;20044;-70
2022/11/10 08:16:52;;;;;;;8.10;3.72;;;;;;;10.12;53.92;101858.59;5027549;28;20044;-70
2022/11/10 08:19:36;;;;;;;12.57;3.42;;;;;;;10.05;52.70;101862.22;5011204;28;20504;-71
2022/11/10 08:22:20;;;;;;;15.10;4.25;;;;;;;11.15;49.83;101857.84;5022056;28;20063;-71
2022/11/10 08:25:04;;;;;;;11.93;3.53;;;;;;;11.52;49.95;101862.09;5022770;28;20545;-71
2022/11/10 08:27:54;;;;;;;15.88;3.97;;;;;;;12.08;47.60;101859.59;5029378;28;20048;-71
2022/11/10 08:30:40;;;;;;;12.43;3.85;;;;;;;11.55;48.84;101864.59;5023611;28;20044;-71
2022/11/10 08:33:25;;;;;;;16.52;4.50;;;;;;;11.13;51.46;101865.75;5025687;28;20608;-72
2022/11/10 08:36:08;;;;;;;11.32;3.42;;;;;;;11.88;49.46;101857.56;5028625;28;20047;-72
2022/11/10 08:38:52;;;;;;;15.57;3.45;;;;;;;10.88;51.60;101875.97;5022578;28;20174;-71
2022/11/10 08:41:36;;;;;;;8.98;3.38;;;;;;;10.48;52.48;101870.84;5012104;28;20539;-70
2022/11/10 08:44:20;;;;;;;18.02;3.65;;;;;;;9.31;54.67;101879.38;5026120;28;20247;-72
2022/11/10 08:47:04;;;;;;;10.98;3.55;;;;;;;9.57;54.37;101878.88;5026976;28;20048;-75
2022/11/10 08:49:48;;;;;;;7.85;3.22;;;;;;;8.71;57.42;101882.16;5024209;28;20044;-73
2022/11/10 08:52:32;;;;;;;17.27;3.65;;;;;;;9.04;56.39;101879.88;5011807;28;20052;-73
2022/11/10 08:55:18;;;;;;;19.75;3.67;;;;;;;9.50;55.79;101884.22;5025693;28;20076;-72
2022/11/10 08:58:03;;;;;;;13.00;3.92;;;;;;;9.42;54.83;101886.13;5026225;28;20056;-71
2022/11/10 09:00:47;;;;;;;23.60;4.57;;;;;;;9.25;55.22;101889.91;5023431;28;20057;-72
2022/11/10 09:03:31;;;;;;;12.00;3.00;;;;;;;9.46;55.45;101893.88;5012761;28;20079;-72
2022/11/10 09:06:15;;;;;;;14.18;4.50;;;;;;;9.59;54.76;101894.50;5021757;28;20398;-72
2022/11/10 09:08:59;;;;;;;13.52;3.75;;;;;;;9.63;54.15;101895.28;5023024;28;20583;-72
2022/11/10 09:11:43;;;;;;;12.93;3.40;;;;;;;8.97;56.23;101902.59;5014211;28;20607;-72
2022/11/10 09:14:27;;;;;;;20.63;6.00;;;;;;;9.31;55.89;101905.44;5024577;28;20748;-71
2022/11/10 09:17:12;;;;;;;14.20;3.35;;;;;;;9.13;55.88;101905.78;5028595;28;20056;-73
2022/11/10 09:19:56;;;;;;;12.95;3.67;;;;;;;8.82;56.78;101908.91;5025894;28;20051;-73
2022/11/10 09:22:40;;;;;;;9.43;3.88;;;;;;;9.10;56.41;101914.53;5017324;28;20052;-72
2022/11/10 09:25:24;;;;;;;15.73;3.88;;;;;;;8.55;58.27;101903.19;5025577;28;20052;-72
2022/11/10 09:28:13;;;;;;;18.20;4.03;;;;;;;8.28;58.81;101911.44;5027218;28;20099;-72
2022/11/10 09:30:57;;;;;;;10.38;3.65;;;;;;;8.74;57.59;101913.41;5012504;28;20645;-72
2022/11/10 09:33:41;;;;;;;13.10;4.05;;;;;;;8.91;57.46;101913.97;5024273;28;20052;-71
2022/11/10 09:36:25;;;;;;;24.55;5.15;;;;;;;9.29;56.30;101922.88;5026467;28;20064;-71
2022/11/10 09:39:09;;;;;;;18.90;4.05;;;;;;;9.30;56.55;101923.75;5013089;28;20114;-72
2022/11/10 09:41:53;;;;;;;11.88;3.35;;;;;;;9.50;55.42;101915.53;5025846;28;20176;-72
2022/11/10 09:44:51;;;;;;;14.38;3.55;;;;;;;9.17;57.06;101928.31;5024247;28;20481;-73
2022/11/10 09:47:44;;;;;;;11.55;3.28;;;;;;;9.65;55.72;101937.88;5027445;28;20071;-72
2022/11/10 09:50:40;;;;;;;12.43;3.33;;;;;;;9.40;55.62;101936.59;5025483;28;20048;-71
2022/11/10 09:53:41;;;;;;;13.43;3.00;;;;;;;9.61;55.59;101955.38;5025347;28;20193;-72
2022/11/10 09:56:36;;;;;;;14.80;4.00;;;;;;;9.73;54.83;101949.91;5024710;28;20075;-71
2022/11/10 09:59:26;;;;;;;16.33;2.70;;;;;;;10.11;54.51;101961.38;5023817;28;20052;-70
2022/11/10 10:02:29;;;;;;;20.58;3.05;;;;;;;10.16;54.02;101953.44;5027136;28;20083;-71
2022/11/10 10:05:56;;;;;;;9.30;3.20;;;;;;;9.97;54.71;101959.03;5026040;28;20053;-72
2022/11/10 10:08:50;;;;;;;12.32;3.83;;;;;;;10.27;53.74;101961.06;5026483;28;20142;-72
2022/11/10 10:12:04;;;;;;;13.75;3.03;;;;;;;10.16;53.71;101962.13;5025876;28;20356;-73
2022/11/10 10:15:20;;;;;;;13.23;4.47;;;;;;;10.10;54.28;101951.81;5024028;28;20107;-72
2022/11/10 10:18:34;;;;;;;11.13;3.15;;;;;;;11.24;51.39;101947.47;5011081;28;20401;-73
2022/11/10 10:21:18;;;;;;;14.73;3.70;;;;;;;9.60;55.03;101953.63;5018388;28;20079;-72
2022/11/10 10:24:03;;;;;;;12.23;3.72;;;;;;;9.77;56.03;101972.47;5025465;28;20179;-72
2022/11/10 10:26:51;;;;;;;17.75;3.97;;;;;;;9.65;55.21;101971.81;5025341;28;20070;-72
2022/11/10 10:29:39;;;;;;;11.05;4.10;;;;;;;9.65;55.31;101972.69;5025239;28;20068;-74
2022/11/10 10:32:25;;;;;;;15.43;3.20;;;;;;;10.64;53.46;101979.41;5023803;28;20182;-73
2022/11/10 10:35:17;;;;;;;16.73;3.72;;;;;;;10.11;54.37;101984.88;5024983;28;20561;-72
2022/11/10 10:38:03;;;;;;;11.77;3.17;;;;;;;10.23;54.78;102007.28;5011572;28;20048;-71
2022/11/10 10:40:49;;;;;;;15.38;3.92;;;;;;;9.71;55.19;102000.44;5022516;28;20107;-73
2022/11/10 10:43:33;;;;;;;13.70;3.45;;;;;;;10.60;53.66;101996.91;5025423;28;21009;-71
2022/11/10 10:46:19;;;;;;;15.40;3.60;;;;;;;9.77;55.52;102003.78;5029005;28;20380;-72
2022/11/10 10:49:13;;;;;;;13.45;4.72;;;;;;;9.91;55.76;102011.38;5016449;28;20473;-72
2022/11/10 10:52:15;;;;;;;12.02;3.83;;;;;;;9.98;55.78;102014.75;5026004;28;20147;-73
2022/11/10 10:55:04;;;;;;;12.70;4.80;;;;;;;9.49;56.58;102010.38;5024608;28;20426;-72
2022/11/10 10:57:58;;;;;;;7.80;3.55;;;;;;;9.66;56.25;102010.09;5024570;28;20154;-73
2022/11/10 11:00:44;;;;;;;10.40;3.53;;;;;;;8.77;58.47;102020.22;5021471;28;20505;-75
2022/11/10 11:03:43;;;;;;;12.93;4.47;;;;;;;9.88;56.48;102021.91;5026175;28;20512;-72
2022/11/10 11:06:32;;;;;;;14.00;3.92;;;;;;;9.10;58.09;102025.81;5025899;28;20515;-73
2022/11/10 11:09:47;;;;;;;25.05;4.22;;;;;;;10.37;54.92;102018.31;5024482;28;20548;-73
2022/11/10 11:12:32;;;;;;;18.60;3.95;;;;;;;10.40;55.17;102012.16;5022355;28;20051;-72
2022/11/10 11:15:28;;;;;;;13.10;4.30;;;;;;;9.82;56.26;102021.16;5025771;28;20056;-72
2022/11/10 11:18:14;;;;;;;14.57;3.78;;;;;;;10.00;55.80;102015.59;5024496;28;20052;-72
2022/11/10 11:21:12;;;;;;;16.73;4.57;;;;;;;10.46;54.60;102027.72;5010848;28;20577;-73
2022/11/10 11:24:16;;;;;;;11.38;3.78;;;;;;;10.46;55.35;102029.44;5021475;28;20144;-71
2022/11/10 11:27:11;;;;;;;12.35;3.28;;;;;;;9.80;56.30;102035.09;5008922;28;20462;-71
2022/11/10 11:30:14;;;;;;;11.00;3.35;;;;;;;10.42;55.17;102037.38;5016014;28;20056;-74
2022/11/10 11:33:19;;;;;;;11.25;2.95;;;;;;;10.63;54.33;102045.66;5024984;28;20456;-75
2022/11/10 11:36:21;;;;;;;11.63;4.18;;;;;;;10.72;53.93;102047.19;5026298;28;20302;-75
2022/11/10 11:39:21;;;;;;;12.27;3.15;;;;;;;10.97;53.16;102043.19;5023726;28;20057;-72
2022/11/10 11:42:14;;;;;;;14.32;3.10;;;;;;;10.00;55.48;102053.00;5023965;28;20119;-73
2022/11/10 11:45:19;;;;;;;17.67;3.28;;;;;;;10.67;54.93;102055.16;5023842;28;20599;-71
2022/11/10 11:48:32;;;;;;;14.23;3.55;;;;;;;10.37;55.28;102049.69;5024117;28;20102;-71
2022/11/10 11:51:34;;;;;;;10.68;2.80;;;;;;;9.97;56.46;102067.88;5023915;28;20147;-72
2022/11/10 11:54:37;;;;;;;16.73;4.88;;;;;;;10.92;54.22;102050.25;5022742;28;20382;-72
2022/11/10 11:57:30;;;;;;;21.80;4.22;;;;;;;10.63;54.97;102048.25;5021017;28;20099;-72
2022/11/10 12:00:17;;;;;;;14.52;3.78;;;;;;;10.70;54.32;102049.84;5023898;28;20132;-72
2022/11/10 12:03:17;;;;;;;19.63;3.10;;;;;;;10.42;54.70;102071.34;5025012;28;20552;-72
2022/11/10 12:06:55;;;;;;;11.95;2.00;;;;;;;10.26;56.27;102075.16;5021017;28;20079;-73
2022/11/10 12:09:45;;;;;;;10.52;3.00;;;;;;;10.94;54.74;102074.63;4951769;28;20093;-74
2022/11/10 12:12:32;;;;;;;12.15;3.53;;;;;;;10.90;54.40;102069.50;5021966;28;20099;-73
2022/11/10 12:15:55;;;;;;;8.18;2.05;;;;;;;10.76;54.64;102077.63;5024178;28;20133;-73
2022/11/10 12:18:55;;;;;;;13.73;2.50;;;;;;;11.62;52.33;102073.00;5019671;28;20528;-72
2022/11/10 12:21:49;;;;;;;9.65;2.17;;;;;;;10.94;53.69;102079.84;5020625;28;20111;-74
2022/11/10 12:24:36;;;;;;;10.32;2.15;;;;;;;10.54;54.68;102091.13;5020062;28;20231;-72
2022/11/10 12:27:29;;;;;;;10.27;2.63;;;;;;;11.44;52.61;102072.59;5023921;28;20072;-72
2022/11/10 12:30:15;;;;;;;9.80;2.17;;;;;;;11.52;52.78;102087.25;5022949;28;20434;-72
2022/11/10 12:33:21;;;;;;;13.13;2.08;;;;;;;11.44;52.96;102090.91;5022269;28;20055;-74
2022/11/10 12:36:11;;;;;;;18.60;3.65;;;;;;;11.06;53.72;102094.41;5022907;28;20183;-72
2022/11/10 12:39:17;;;;;;;12.98;2.75;;;;;;;10.53;54.92;102099.88;5024038;28;22015;-72
2022/11/10 12:42:03;;;;;;;10.20;2.13;;;;;;;10.20;55.93;102099.66;5025163;28;20520;-73
2022/11/10 12:45:06;;;;;;;11.32;2.22;;;;;;;10.42;55.24;102117.53;5023317;28;20135;-72
2022/11/10 12:47:52;;;;;;;18.67;2.53;;;;;;;10.29;55.27;102105.59;5020332;28;20084;-72
2022/11/10 12:51:01;;;;;;;13.70;3.30;;;;;;;10.50;55.38;102099.94;5026433;28;20152;-69
2022/11/10 12:53:46;;;;;;;6.85;2.40;;;;;;;10.92;53.77;102092.13;5020220;28;20049;-66
2022/11/10 12:56:41;;;;;;;13.32;3.60;;;;;;;10.72;54.69;102100.34;5015770;28;20103;-68
2022/11/10 12:59:30;;;;;;;11.90;2.63;;;;;;;11.41;52.98;102082.28;5026055;28;20147;-69
2022/11/10 13:02:37;;;;;;;10.45;2.58;;;;;;;10.63;54.99;102084.88;5029357;28;20094;-71
2022/11/10 13:05:44;;;;;;;12.48;3.17;;;;;;;10.89;54.33;102081.72;5021311;28;20571;-69
2022/11/10 13:08:34;;;;;;;6.18;2.15;;;;;;;10.80;55.16;102076.66;5028686;28;20051;-67
2022/11/10 13:11:25;;;;;;;17.55;1.90;;;;;;;10.92;54.61;102073.81;5030262;28;20077;-69
2022/11/10 13:14:28;;;;;;;12.80;3.00;;;;;;;11.32;53.68;102075.50;5028849;28;20094;-70
2022/11/10 13:17:25;;;;;;;16.48;2.55;;;;;;;11.30;53.42;102082.53;5029556;28;20052;-69